Time;durP1;ratioP1;P1;durP2;ratioP2;P2;SDS_P1;SDS_P2;PMS_P1;PMS_P2;Temp;Humidity;BMP_temperature;BMP_pressure;BME280_temperature;BME280_humidity;BME280_pressure;Samples;Min_cycle;Max_cycle;Signal;HPM_P1;HPM_P2
2022/12/10 00:01:15;;;;;;;;;1.00;0.75;;;;;0.37;96.11;97076.22;4902774;28;102044;-72
2022/12/10 00:03:43;;;;;;;;;1.00;1.00;;;;;0.41;96.23;97087.31;4895203;28;102485;-72
2022/12/10 00:06:15;;;;;;;;;0.00;0.00;;;;;0.45;96.14;97088.66;4900632;28;102265;-72
2022/12/10 00:08:43;;;;;;;;;0.00;0.00;;;;;0.45;96.33;97083.34;4897920;28;104014;-73
2022/12/10 00:11:12;;;;;;;;;1.00;0.00;;;;;0.47;96.09;97080.47;4909435;28;102236;-72
2022/12/10 00:13:40;;;;;;;;;0.00;0.00;;;;;0.48;95.63;97077.66;4904927;28;101981;-72
2022/12/10 00:16:09;;;;;;;;;0.00;0.00;;;;;0.52;95.90;97083.44;4910872;28;102625;-73
2022/12/10 00:18:37;;;;;;;;;0.00;0.00;;;;;0.49;96.25;97083.81;4902279;28;103464;-73
2022/12/10 00:21:07;;;;;;;;;1.00;0.75;;;;;0.41;95.78;97082.00;4914422;28;102103;-73
2022/12/10 00:23:35;;;;;;;;;0.25;0.00;;;;;0.44;95.77;97082.50;4899403;28;102201;-74
2022/12/10 00:26:07;;;;;;;;;3.50;1.00;;;;;0.39;95.33;97084.03;4905848;28;102457;-73
2022/12/10 00:28:34;;;;;;;;;1.00;1.00;;;;;0.38;96.07;97087.69;4897671;28;108840;-74
2022/12/10 00:31:07;;;;;;;;;1.00;1.00;;;;;0.40;96.07;97086.50;4888558;28;102689;-73
2022/12/10 00:33:35;;;;;;;;;2.00;0.00;;;;;0.42;95.89;97092.47;4878164;28;102203;-75
2022/12/10 00:36:24;;;;;;;;;1.00;0.75;;;;;0.41;95.93;97103.25;4853244;28;102448;-74
2022/12/10 00:38:51;;;;;;;;;1.25;0.75;;;;;0.37;96.22;97094.81;4886124;28;108624;-73
2022/12/10 00:41:19;;;;;;;;;1.00;1.00;;;;;0.37;96.25;97094.00;4902030;28;102310;-72
2022/12/10 00:43:46;;;;;;;;;1.00;1.00;;;;;0.32;96.16;97091.03;4904315;28;101930;-74
2022/12/10 00:46:15;;;;;;;;;3.50;1.75;;;;;0.35;96.57;97094.19;4912138;28;102018;-74
2022/12/10 00:48:43;;;;;;;;;2.00;2.00;;;;;0.36;96.39;97087.84;4902087;28;102993;-74
2022/12/10 00:51:15;;;;;;;;;2.00;1.00;;;;;0.38;96.69;97098.31;4911352;28;102155;-74
2022/12/10 00:53:43;;;;;;;;;0.25;0.25;;;;;0.19;96.43;97067.66;4900875;28;102137;-73
2022/12/10 00:56:12;;;;;;;;;1.50;1.50;;;;;0.26;96.36;97075.78;4909720;28;102185;-73
2022/12/10 00:58:39;;;;;;;;;2.00;2.00;;;;;0.34;96.48;97097.84;4889619;28;103998;-73
2022/12/10 01:01:23;;;;;;;;;1.00;1.00;;;;;0.39;96.45;97094.66;4910583;28;103624;-73
2022/12/10 01:03:54;;;;;;;;;1.00;1.00;;;;;0.37;96.21;97091.31;4896475;28;102376;-72
2022/12/10 01:06:33;;;;;;;;;1.50;0.25;;;;;0.39;96.15;97099.97;4885660;28;102126;-72
2022/12/10 01:09:07;;;;;;;;;3.50;2.00;;;;;0.38;96.39;97103.63;4881517;28;108491;-72
2022/12/10 01:11:37;;;;;;;;;4.00;1.50;;;;;0.41;96.23;97103.25;4896319;28;102565;-74
2022/12/10 01:14:07;;;;;;;;;1.25;1.00;;;;;0.45;96.60;97102.75;4890758;28;102065;-73
2022/12/10 01:16:35;;;;;;;;;1.50;1.00;;;;;0.42;96.83;97104.94;4884894;28;102332;-74
2022/12/10 01:19:02;;;;;;;;;2.00;1.00;;;;;0.42;95.97;97099.63;4903857;28;103633;-73
2022/12/10 01:21:30;;;;;;;;;2.00;1.75;;;;;0.41;96.50;97096.13;4888420;28;102471;-73
2022/12/10 01:23:58;;;;;;;;;1.25;0.00;;;;;0.47;95.97;97104.41;4895226;28;102176;-73
2022/12/10 01:26:29;;;;;;;;;1.00;1.00;;;;;0.42;95.88;97089.81;4904016;28;102499;-73
2022/12/10 01:28:59;;;;;;;;;1.00;1.00;;;;;0.42;96.26;97103.09;4900064;28;104006;-73
2022/12/10 01:31:31;;;;;;;;;0.25;0.25;;;;;0.44;96.29;97102.94;4881450;28;102157;-74
2022/12/10 01:33:59;;;;;;;;;6.00;2.00;;;;;0.43;96.03;97112.75;4898748;28;102075;-73
2022/12/10 01:36:32;;;;;;;;;1.75;0.00;;;;;0.44;95.92;97109.09;4896754;28;102311;-73
2022/12/10 01:39:01;;;;;;;;;1.00;1.00;;;;;0.51;96.06;97119.84;4896709;28;104051;-74
2022/12/10 01:41:32;;;;;;;;;1.00;0.00;;;;;0.53;96.44;97122.34;4906642;28;102481;-74
2022/12/10 01:44:24;;;;;;;;;0.50;0.50;;;;;0.54;95.93;97119.47;4908038;28;105507;-74
2022/12/10 01:46:54;;;;;;;;;0.00;0.00;;;;;0.54;95.73;97116.81;4903007;28;102346;-72
2022/12/10 01:49:31;;;;;;;;;2.00;0.75;;;;;0.48;95.79;97124.69;4906984;28;104068;-72
2022/12/10 01:51:59;;;;;;;;;2.00;1.75;;;;;0.44;96.26;97134.84;4901752;28;102516;-72
2022/12/10 01:54:31;;;;;;;;;0.00;0.00;;;;;0.47;96.17;97133.66;4899942;28;102545;-73
2022/12/10 01:56:59;;;;;;;;;3.00;2.00;;;;;0.42;96.00;97134.19;4877395;28;102365;-73
2022/12/10 01:59:27;;;;;;;;;3.75;2.25;;;;;0.40;96.26;97133.53;4903099;28;104051;-73
2022/12/10 02:02:12;;;;;;;;;0.00;0.00;;;;;0.47;96.33;97134.50;4891720;28;104420;-73
2022/12/10 02:04:54;;;;;;;;;1.00;1.00;;;;;0.44;96.26;97135.69;4892436;28;104386;-73
2022/12/10 02:07:51;;;;;;;;;4.00;1.75;;;;;0.43;95.66;97119.88;4899412;28;101846;-73
2022/12/10 02:11:06;;;;;;;;;2.00;1.50;;;;;0.46;96.05;97122.19;4893895;28;107688;-73
2022/12/10 02:14:21;;;;;;;;;2.00;0.25;;;;;0.51;96.16;97125.16;4907188;28;102447;-74
2022/12/10 02:17:22;;;;;;;;;0.50;0.25;;;;;0.57;96.10;97124.47;4897627;28;102124;-74
2022/12/10 02:20:12;;;;;;;;;0.00;0.00;;;;;0.59;96.32;97125.09;4907417;28;102323;-74
2022/12/10 02:23:18;;;;;;;;;1.00;0.00;;;;;0.65;96.38;97135.06;4889387;28;103163;-73
2022/12/10 02:26:10;;;;;;;;;0.75;0.00;;;;;0.67;95.74;97133.06;4902963;28;102063;-73
2022/12/10 02:29:12;;;;;;;;;0.50;0.00;;;;;0.63;95.02;97125.59;4907171;28;102604;-73
2022/12/10 02:31:50;;;;;;;;;1.00;1.00;;;;;0.55;95.05;97122.97;4903299;28;102315;-71
2022/12/10 02:34:21;;;;;;;;;0.25;0.00;;;;;0.59;95.06;97137.56;4874490;28;104276;-73
2022/12/10 02:36:54;;;;;;;;;0.50;0.00;;;;;0.58;94.93;97147.41;4900901;28;102115;-71
2022/12/10 02:39:28;;;;;;;;;1.75;1.00;;;;;0.47;94.61;97139.81;4897805;28;102157;-73
2022/12/10 02:41:57;;;;;;;;;4.00;1.75;;;;;0.39;95.23;97155.81;4905537;28;102383;-72
2022/12/10 02:44:26;;;;;;;;;5.75;4.50;;;;;0.26;96.30;97148.38;4902833;28;104146;-72
2022/12/10 02:46:58;;;;;;;;;5.00;5.00;;;;;0.35;96.35;97157.16;4900726;28;102445;-72
2022/12/10 02:49:26;;;;;;;;;2.00;2.00;;;;;0.43;96.42;97162.44;4891863;28;102413;-72
2022/12/10 02:51:53;;;;;;;;;4.25;3.50;;;;;0.36;96.16;97158.81;4892610;28;102225;-72
2022/12/10 02:54:42;;;;;;;;;8.75;5.75;;;;;0.19;96.83;97150.06;4898465;28;104044;-72
2022/12/10 02:57:21;;;;;;;;;5.00;4.25;;;;;0.27;97.29;97165.97;4875011;28;102496;-72
2022/12/10 03:00:09;;;;;;;;;3.00;3.00;;;;;0.29;96.92;97155.16;4894989;28;102252;-72
2022/12/10 03:03:03;;;;;;;;;3.50;2.00;;;;;0.31;97.11;97151.34;4905291;28;103143;-72
2022/12/10 03:05:49;;;;;;;;;6.00;4.00;;;;;0.35;96.60;97135.88;4905348;28;107197;-72
2022/12/10 03:08:29;;;;;;;;;3.75;3.75;;;;;0.35;96.80;97135.88;4899538;28;102623;-73
2022/12/10 03:11:12;;;;;;;;;4.00;2.00;;;;;0.37;96.75;97141.84;4884975;28;102508;-72
2022/12/10 03:13:49;;;;;;;;;3.75;3.00;;;;;0.36;97.29;97132.22;4900380;28;102209;-72
2022/12/10 03:16:18;;;;;;;;;5.00;2.50;;;;;0.37;96.86;97140.00;4898416;28;103997;-72
2022/12/10 03:18:50;;;;;;;;;4.00;4.00;;;;;0.34;96.58;97155.47;4885132;28;102380;-72
2022/12/10 03:21:18;;;;;;;;;2.00;1.50;;;;;0.33;97.06;97153.81;4903756;28;102062;-72
2022/12/10 03:23:48;;;;;;;;;4.00;4.00;;;;;0.34;96.77;97155.47;4905611;28;102254;-72
2022/12/10 03:26:17;;;;;;;;;4.50;1.25;;;;;0.34;97.04;97163.47;4900590;28;104091;-72
2022/12/10 03:28:55;;;;;;;;;4.00;4.00;;;;;0.31;97.02;97161.16;4905600;28;102223;-72
2022/12/10 03:31:23;;;;;;;;;4.00;2.50;;;;;0.34;97.00;97163.47;4910174;28;102217;-72
2022/12/10 03:33:52;;;;;;;;;5.25;2.50;;;;;0.37;97.05;97171.09;4907129;28;102077;-72
2022/12/10 03:36:20;;;;;;;;;3.00;2.00;;;;;0.33;96.91;97172.44;4872451;28;103956;-72
2022/12/10 03:38:47;;;;;;;;;2.00;2.00;;;;;0.32;96.66;97171.59;4898435;28;102482;-72
2022/12/10 03:41:14;;;;;;;;;4.75;4.50;;;;;0.33;96.98;97180.41;4907317;28;101940;-72
2022/12/10 03:43:56;;;;;;;;;4.00;2.00;;;;;0.36;96.95;97180.88;4914935;28;102141;-73
2022/12/10 03:46:25;;;;;;;;;1.25;1.00;;;;;0.32;96.44;97170.75;4893818;28;103979;-72
2022/12/10 03:48:53;;;;;;;;;4.75;3.00;;;;;0.37;96.54;97185.22;4893397;28;102307;-72
2022/12/10 03:51:20;;;;;;;;;4.50;4.00;;;;;0.36;96.83;97191.50;4895989;28;102372;-72
2022/12/10 03:53:50;;;;;;;;;5.75;2.00;;;;;0.40;96.99;97181.38;4900236;28;101997;-73
2022/12/10 03:56:19;;;;;;;;;4.50;3.50;;;;;0.39;96.73;97179.72;4898322;28;104029;-72
2022/12/10 03:58:46;;;;;;;;;3.00;2.50;;;;;0.38;96.35;97183.38;4895269;28;102450;-72
2022/12/10 04:01:14;;;;;;;;;2.00;2.00;;;;;0.38;96.75;97189.53;4891033;28;102323;-72
2022/12/10 04:03:42;;;;;;;;;1.25;1.25;;;;;0.41;96.69;97194.50;4889794;28;102497;-72
2022/12/10 04:06:13;;;;;;;;;3.25;1.75;;;;;0.45;97.14;97195.81;4909362;28;105557;-73
2022/12/10 04:08:40;;;;;;;;;2.50;1.50;;;;;0.43;96.47;97194.31;4902475;28;102039;-73
2022/12/10 04:11:09;;;;;;;;;1.75;1.00;;;;;0.41;96.30;97205.13;4899715;28;101952;-73
2022/12/10 04:16:27;;;;;;;;;2.00;1.00;;;;;0.39;96.62;97206.31;4913069;28;104027;-73
2022/12/10 04:19:01;;;;;;;;;4.00;3.00;;;;;0.38;96.76;97199.31;4912616;28;102478;-73
2022/12/10 04:27:09;;;;;;;;;3.50;2.00;;;;;0.38;96.69;97210.78;4907936;28;108704;-73
2022/12/10 04:29:36;;;;;;;;;4.50;1.00;;;;;0.40;96.20;97213.28;4909161;28;102371;-73
2022/12/10 04:32:04;;;;;;;;;5.75;4.00;;;;;0.33;96.62;97228.25;4908863;28;102020;-73
2022/12/10 04:34:31;;;;;;;;;4.50;4.00;;;;;0.30;96.77;97237.41;4907190;28;102150;-73
2022/12/10 04:37:00;;;;;;;;;6.00;4.75;;;;;0.31;96.58;97241.75;4899177;28;105245;-72
2022/12/10 04:39:27;;;;;;;;;9.25;5.50;;;;;0.29;96.90;97226.94;4887788;28;102365;-73
2022/12/10 04:41:54;;;;;;;;;7.00;5.50;;;;;0.22;97.48;97213.53;4906208;28;102193;-73
2022/12/10 04:44:21;;;;;;;;;8.00;5.00;;;;;0.15;96.70;97209.03;4908918;28;102188;-72
2022/12/10 04:46:50;;;;;;;;;4.50;4.50;;;;;0.22;97.42;97240.09;4906525;28;103661;-73
2022/12/10 04:49:17;;;;;;;;;4.50;4.50;;;;;0.17;97.55;97234.47;4887377;28;102167;-73
2022/12/10 04:51:44;;;;;;;;;5.50;4.75;;;;;0.22;98.04;97231.28;4902560;28;102019;-72
2022/12/10 04:54:13;;;;;;;;;5.25;5.25;;;;;0.17;97.19;97230.97;4897912;28;102357;-73
2022/12/10 04:56:42;;;;;;;;;8.00;5.50;;;;;0.11;97.74;97226.31;4872156;28;104023;-73
2022/12/10 04:59:11;;;;;;;;;12.00;6.00;;;;;0.11;97.85;97232.47;4902859;28;102065;-73
2022/12/10 05:01:38;;;;;;;;;8.25;6.00;;;;;0.13;98.12;97229.66;4880824;28;102200;-73
2022/12/10 05:04:08;;;;;;;;;7.00;5.00;;;;;0.19;98.09;97242.25;4886183;28;102419;-73
2022/12/10 05:06:35;;;;;;;;;10.75;5.00;;;;;0.14;98.04;97245.41;4908791;28;104134;-72
2022/12/10 05:09:04;;;;;;;;;11.25;6.00;;;;;0.13;97.61;97249.09;4904465;28;102226;-72
2022/12/10 05:11:32;;;;;;;;;5.75;5.75;;;;;0.15;97.67;97259.53;4897494;28;102289;-72
2022/12/10 05:14:00;;;;;;;;;6.50;5.00;;;;;0.16;97.75;97263.84;4897423;28;102022;-72
2022/12/10 05:16:29;;;;;;;;;5.75;4.00;;;;;0.19;97.99;97255.53;4906500;28;104027;-72
2022/12/10 05:18:56;;;;;;;;;2.00;2.00;;;;;0.13;97.53;97267.69;4901697;28;102165;-73
2022/12/10 05:23:27;;;;;;;;;8.00;5.00;;;;;0.13;97.49;97286.28;4904569;28;102403;-72
2022/12/10 05:24:14;;;;;;;;;8.00;6.00;;;;;0.05;98.01;97285.44;4901191;28;102279;-73
2022/12/10 05:26:41;;;;;;;;;4.25;2.00;;;;;0.09;98.27;97273.50;4903098;28;104356;-72
2022/12/10 05:29:08;;;;;;;;;6.00;6.00;;;;;0.06;98.56;97273.81;4884960;28;102352;-73
2022/12/10 05:31:36;;;;;;;;;8.67;6.67;;;;;0.08;97.96;97274.50;4897205;28;102314;-73
2022/12/10 05:34:04;;;;;;;;;6.00;5.50;;;;;0.16;98.27;97274.47;4902003;28;102303;-73
2022/12/10 05:36:31;;;;;;;;;11.00;6.67;;;;;-0.01;97.80;97263.06;4904878;28;108732;-72
2022/12/10 05:38:59;;;;;;;;;11.67;6.67;;;;;0.10;97.80;97275.97;4898475;28;102485;-72
2022/12/10 05:41:28;;;;;;;;;8.00;6.00;;;;;0.08;98.19;97272.66;4889190;28;102546;-72
2022/12/10 05:43:57;;;;;;;;;8.00;7.50;;;;;0.06;98.30;97279.13;4863720;28;102354;-72
2022/12/10 05:46:28;;;;;;;;;8.25;7.50;;;;;0.10;98.35;97269.81;4869950;28;104069;-72
2022/12/10 05:48:56;;;;;;;;;6.00;5.25;;;;;0.11;97.97;97260.88;4864080;28;102448;-72
2022/12/10 05:51:27;;;;;;;;;8.00;6.00;;;;;0.11;98.19;97260.88;4872666;28;102172;-72
2022/12/10 05:53:54;;;;;;;;;8.75;7.00;;;;;0.10;97.93;97252.06;4897605;28;102155;-72
2022/12/10 05:56:23;;;;;;;;;6.50;5.00;;;;;0.13;97.69;97251.75;4900705;28;103942;-72
2022/12/10 05:58:52;;;;;;;;;8.50;6.50;;;;;0.10;97.83;97245.91;4894447;28;101953;-73
2022/12/10 06:01:22;;;;;;;;;7.50;7.50;;;;;0.12;97.93;97235.97;4894964;28;106041;-72
2022/12/10 06:03:52;;;;;;;;;5.75;5.00;;;;;0.17;98.04;97234.47;4902897;28;103132;-72
2022/12/10 06:06:23;;;;;;;;;2.00;1.50;;;;;0.21;98.02;97240.25;4891954;28;104047;-73
2022/12/10 06:08:51;;;;;;;;;4.00;4.00;;;;;0.23;97.38;97235.59;4906701;28;102125;-73
2022/12/10 06:11:18;;;;;;;;;4.00;2.00;;;;;0.27;97.61;97245.72;4899161;28;101729;-72
2022/12/10 06:13:46;;;;;;;;;4.25;2.50;;;;;0.29;97.27;97242.88;4907386;28;102721;-73
2022/12/10 06:16:20;;;;;;;;;1.75;1.00;;;;;0.30;97.07;97247.22;4876641;28;104258;-72
2022/12/10 06:18:47;;;;;;;;;1.25;1.00;;;;;0.32;96.94;97248.69;4905559;28;102404;-72
2022/12/10 06:21:17;;;;;;;;;5.75;4.00;;;;;0.32;97.46;97250.50;4901811;28;102528;-72
2022/12/10 06:23:45;;;;;;;;;2.50;1.00;;;;;0.36;97.11;97255.31;4842186;28;102055;-72
2022/12/10 06:26:18;;;;;;;;;4.00;1.75;;;;;0.38;96.57;97263.13;4903925;28;103291;-72
2022/12/10 06:28:46;;;;;;;;;2.00;1.00;;;;;0.37;96.70;97266.78;4896254;28;102360;-73
2022/12/10 06:31:15;;;;;;;;;2.00;2.00;;;;;0.36;96.28;97263.28;4900131;28;102003;-73
2022/12/10 06:33:42;;;;;;;;;4.25;4.00;;;;;0.29;96.41;97272.13;4913888;28;102233;-71
2022/12/10 06:36:11;;;;;;;;;4.50;2.50;;;;;0.31;96.39;97267.47;4903432;28;105616;-72
2022/12/10 06:38:38;;;;;;;;;1.00;1.00;;;;;0.33;96.77;97282.25;4903392;28;102361;-73
2022/12/10 06:41:11;;;;;;;;;3.50;3.00;;;;;0.34;96.45;97288.41;4895999;28;102360;-73
2022/12/10 06:43:39;;;;;;;;;4.25;3.00;;;;;0.38;96.88;97289.72;4897000;28;102354;-73
2022/12/10 06:46:11;;;;;;;;;4.25;3.50;;;;;0.37;96.42;97291.53;4904176;28;104402;-73
2022/12/10 06:48:38;;;;;;;;;7.00;4.00;;;;;0.35;96.51;97303.38;4909635;28;102461;-73
2022/12/10 06:51:06;;;;;;;;;4.25;1.75;;;;;0.40;96.57;97314.31;4911714;28;102192;-74
2022/12/10 06:53:36;;;;;;;;;2.50;2.00;;;;;0.43;95.74;97319.28;4904989;28;102174;-73
2022/12/10 06:56:04;;;;;;;;;4.00;2.00;;;;;0.40;96.30;97324.97;4911603;28;108763;-73
2022/12/10 06:58:33;;;;;;;;;2.00;2.00;;;;;0.45;96.00;97333.25;4895366;28;102176;-72
2022/12/10 07:01:09;;;;;;;;;2.00;1.50;;;;;0.50;95.80;97336.22;4908893;28;102183;-73
2022/12/10 07:03:37;;;;;;;;;4.00;2.00;;;;;0.56;96.04;97346.19;4905539;28;102280;-73
2022/12/10 07:06:05;;;;;;;;;0.00;0.00;;;;;0.49;94.64;97360.34;4915051;28;103998;-72
2022/12/10 07:08:32;;;;;;;;;2.00;1.00;;;;;0.56;95.26;97367.47;4911824;28;102188;-72
2022/12/10 07:11:03;;;;;;;;;2.00;1.00;;;;;0.55;94.93;97359.63;4911799;28;102283;-72
2022/12/10 07:13:30;;;;;;;;;1.75;1.00;;;;;0.51;95.44;97335.22;4912746;28;102156;-73
2022/12/10 07:15:57;;;;;;;;;6.00;6.00;;;;;0.43;95.50;97329.94;4916228;28;104036;-73
2022/12/10 07:18:26;;;;;;;;;4.25;3.50;;;;;0.48;95.80;97322.28;4915841;28;102330;-73
2022/12/10 07:20:55;;;;;;;;;4.50;2.00;;;;;0.52;96.18;97328.91;4900324;28;101999;-73
2022/12/10 07:23:22;;;;;;;;;2.00;1.00;;;;;0.58;96.16;97338.88;4900656;28;102672;-73
2022/12/10 07:25:49;;;;;;;;;1.00;0.50;;;;;0.66;96.32;97341.50;4889335;28;104437;-73
2022/12/10 07:28:16;;;;;;;;;0.00;0.00;;;;;0.68;96.17;97336.84;4910373;28;102476;-72
2022/12/10 07:30:43;;;;;;;;;0.75;0.75;;;;;0.68;95.40;97333.34;4916101;28;102017;-72
2022/12/10 07:33:10;;;;;;;;;1.00;0.75;;;;;0.67;94.78;97335.19;4907382;28;102330;-73
2022/12/10 07:35:39;;;;;;;;;2.00;1.50;;;;;0.66;94.55;97343.34;4914685;28;103930;-73
2022/12/10 07:38:14;;;;;;;;;1.00;0.75;;;;;0.63;95.24;97336.53;4911945;28;102019;-73
2022/12/10 07:40:41;;;;;;;;;1.00;1.00;;;;;0.66;94.27;97344.19;4915354;28;102211;-73
2022/12/10 07:43:08;;;;;;;;;1.75;1.00;;;;;0.64;94.11;97348.81;4915508;28;102390;-73
2022/12/10 07:45:35;;;;;;;;;2.00;1.00;;;;;0.62;94.21;97345.53;4916157;28;104128;-74
2022/12/10 07:48:02;;;;;;;;;1.00;0.75;;;;;0.73;94.30;97369.09;4916735;28;102161;-73
2022/12/10 07:50:29;;;;;;;;;1.00;1.00;;;;;0.66;93.47;97368.13;4894306;28;102068;-73
2022/12/10 07:52:56;;;;;;;;;4.00;1.00;;;;;0.61;94.62;97364.28;4906507;28;102172;-73
2022/12/10 07:55:23;;;;;;;;;4.50;2.50;;;;;0.64;94.66;97359.47;4914166;28;104040;-73
2022/12/10 07:57:50;;;;;;;;;3.50;2.00;;;;;0.63;94.23;97368.44;4896185;28;102861;-73
2022/12/10 08:00:18;;;;;;;;;2.75;2.00;;;;;0.65;94.87;97361.13;4890834;28;102288;-73
2022/12/10 08:02:45;;;;;;;;;5.50;5.00;;;;;0.50;94.44;97359.31;4913036;28;105785;-73
2022/12/10 08:05:12;;;;;;;;;3.50;3.50;;;;;0.53;94.88;97356.34;4903864;28;104168;-73
2022/12/10 08:07:41;;;;;;;;;7.00;4.00;;;;;0.55;95.08;97365.78;4913147;28;102677;-74
2022/12/10 08:10:08;;;;;;;;;5.00;5.00;;;;;0.50;94.60;97364.63;4898914;28;102133;-73
2022/12/10 08:12:36;;;;;;;;;7.00;5.00;;;;;0.54;94.93;97356.16;4894214;28;102465;-74
2022/12/10 08:15:04;;;;;;;;;8.00;6.00;;;;;0.55;94.58;97354.31;4887122;28;104651;-73
2022/12/10 08:17:31;;;;;;;;;7.00;6.00;;;;;0.59;95.15;97348.50;4904165;28;102166;-72
2022/12/10 08:19:57;;;;;;;;;5.50;5.50;;;;;0.62;94.81;97340.19;4911324;28;102053;-73
2022/12/10 08:22:24;;;;;;;;;6.00;6.00;;;;;0.71;94.99;97343.66;4914650;28;102132;-73
2022/12/10 08:24:51;;;;;;;;;8.00;5.75;;;;;0.73;94.35;97342.47;4897445;28;104201;-74
2022/12/10 08:27:18;;;;;;;;;5.50;5.00;;;;;0.77;94.96;97335.81;4912354;28;102393;-73
2022/12/10 08:29:45;;;;;;;;;2.00;1.75;;;;;0.88;93.99;97343.44;4895408;28;102137;-73
2022/12/10 08:32:13;;;;;;;;;4.75;3.25;;;;;0.84;93.10;97355.44;4894346;28;102176;-73
2022/12/10 08:34:41;;;;;;;;;6.75;6.00;;;;;0.88;93.25;97356.75;4905189;28;103700;-74
2022/12/10 08:37:08;;;;;;;;;6.00;4.00;;;;;1.00;92.87;97361.69;4913187;28;102346;-73
2022/12/10 08:39:38;;;;;;;;;1.00;1.00;;;;;1.03;93.69;97348.91;4914396;28;102141;-73
2022/12/10 08:42:05;;;;;;;;;3.50;2.00;;;;;1.16;93.12;97369.63;4916675;28;104756;-74
2022/12/10 08:44:32;;;;;;;;;2.00;2.00;;;;;1.18;92.23;97368.44;4915229;28;108149;-73
2022/12/10 08:46:59;;;;;;;;;2.00;2.00;;;;;1.17;92.06;97355.31;4912647;28;102068;-73
2022/12/10 08:49:26;;;;;;;;;4.00;1.50;;;;;1.23;92.17;97360.78;4913695;28;102100;-73
2022/12/10 08:51:54;;;;;;;;;1.75;1.00;;;;;1.18;92.23;97347.16;4916012;28;102398;-74
2022/12/10 08:54:21;;;;;;;;;0.50;0.50;;;;;1.28;91.98;97360.25;4909842;28;103600;-72
2022/12/10 08:56:48;;;;;;;;;1.00;1.00;;;;;1.30;92.07;97361.75;4915349;28;102448;-72
2022/12/10 08:59:15;;;;;;;;;0.50;0.25;;;;;1.29;91.36;97372.56;4915056;28;102113;-73
2022/12/10 09:01:42;;;;;;;;;1.00;1.00;;;;;1.27;91.17;97371.91;4914892;28;102262;-72
2022/12/10 09:04:09;;;;;;;;;3.25;2.75;;;;;1.16;91.20;97357.16;4911420;28;104000;-72
2022/12/10 09:06:36;;;;;;;;;2.00;2.00;;;;;1.23;91.92;97343.97;4914611;28;102542;-72
2022/12/10 09:09:03;;;;;;;;;1.50;1.50;;;;;1.35;92.21;97345.25;4916436;28;102588;-73
2022/12/10 09:11:33;;;;;;;;;4.00;2.75;;;;;1.35;91.46;97350.59;4914556;28;102605;-71
2022/12/10 09:14:01;;;;;;;;;1.00;1.00;;;;;1.44;91.33;97343.38;4913166;28;108602;-72
2022/12/10 09:16:36;;;;;;;;;0.00;0.00;;;;;1.51;91.39;97350.50;4914052;28;102290;-73
2022/12/10 09:19:04;;;;;;;;;0.25;0.25;;;;;1.51;90.75;97363.81;4912784;28;102227;-73
2022/12/10 09:21:31;;;;;;;;;1.00;1.00;;;;;1.49;90.58;97360.47;4914748;28;103094;-73
2022/12/10 09:23:59;;;;;;;;;0.75;0.00;;;;;1.50;90.63;97364.81;4910819;28;104019;-73
2022/12/10 09:26:27;;;;;;;;;0.00;0.00;;;;;1.46;90.19;97352.84;4898733;28;102324;-72
2022/12/10 09:28:54;;;;;;;;;1.25;0.75;;;;;1.39;90.97;97353.72;4879272;28;102501;-72
2022/12/10 09:31:21;;;;;;;;;1.00;1.00;;;;;1.29;91.15;97333.47;4898999;28;102450;-72
2022/12/10 09:33:51;;;;;;;;;1.00;0.75;;;;;1.38;90.46;97342.25;4891002;28;103237;-72
2022/12/10 09:36:19;;;;;;;;;1.25;0.75;;;;;1.32;91.00;97337.59;4898241;28;102355;-72
2022/12/10 09:38:47;;;;;;;;;0.50;0.50;;;;;1.33;91.00;97336.59;4894474;28;102314;-73
2022/12/10 09:41:31;;;;;;;;;1.75;1.75;;;;;1.27;91.58;97340.78;4882448;28;102295;-73
2022/12/10 09:44:16;;;;;;;;;0.75;0.00;;;;;1.31;92.10;97350.09;4882007;28;103997;-71
2022/12/10 09:46:54;;;;;;;;;0.50;0.00;;;;;1.32;92.31;97338.44;4888863;28;102121;-73
2022/12/10 09:49:54;;;;;;;;;0.00;0.00;;;;;1.31;91.89;97346.59;4885022;28;102474;-73
2022/12/10 09:52:24;;;;;;;;;0.00;0.00;;;;;1.25;91.77;97336.66;4891915;28;102555;-73
2022/12/10 09:55:12;;;;;;;;;1.00;1.00;;;;;1.24;92.21;97335.81;4883247;28;103975;-71
2022/12/10 09:57:47;;;;;;;;;1.00;1.00;;;;;1.19;91.90;97332.00;4858627;28;102507;-71
2022/12/10 10:00:38;;;;;;;;;0.75;0.00;;;;;1.21;92.32;97332.69;4886340;28;102044;-73
2022/12/10 10:03:06;;;;;;;;;1.00;0.00;;;;;1.16;92.10;97332.38;4890782;28;102247;-71
2022/12/10 10:05:41;;;;;;;;;5.25;2.50;;;;;1.10;92.60;97330.38;4894337;28;108725;-71
2022/12/10 10:08:31;;;;;;;;;1.75;1.00;;;;;1.12;93.39;97347.84;4866752;28;102413;-72
2022/12/10 10:11:00;;;;;;;;;1.75;1.00;;;;;1.14;92.72;97356.50;4896386;28;102183;-72
2022/12/10 10:13:40;;;;;;;;;2.25;2.25;;;;;1.11;92.11;97345.34;4893158;28;102362;-72
2022/12/10 10:16:16;;;;;;;;;5.25;2.25;;;;;1.09;91.98;97352.66;4874042;28;108637;-72
2022/12/10 10:18:49;;;;;;;;;1.75;1.75;;;;;1.11;92.33;97340.03;4887870;28;102125;-71
2022/12/10 10:21:28;;;;;;;;;2.00;2.00;;;;;1.10;92.25;97346.34;4881379;28;102036;-72
2022/12/10 10:23:56;;;;;;;;;4.75;2.00;;;;;1.10;91.81;97343.69;4890302;28;102254;-72
2022/12/10 10:26:26;;;;;;;;;2.50;2.00;;;;;1.16;92.34;97358.97;4897710;28;104303;-72
2022/12/10 10:28:59;;;;;;;;;2.25;1.50;;;;;1.13;92.13;97351.31;4895659;28;102473;-72
2022/12/10 10:31:29;;;;;;;;;2.00;1.00;;;;;1.18;91.90;97356.97;4912244;28;102231;-72
2022/12/10 10:34:06;;;;;;;;;4.00;4.00;;;;;1.14;91.41;97364.47;4887324;28;102060;-71
2022/12/10 10:36:38;;;;;;;;;3.00;2.00;;;;;1.19;92.35;97366.63;4910858;28;108822;-72
2022/12/10 10:39:15;;;;;;;;;8.00;4.00;;;;;1.07;91.56;97349.38;4911022;28;105942;-72
2022/12/10 10:41:45;;;;;;;;;7.75;5.50;;;;;0.98;92.77;97331.78;4909408;28;102410;-72
2022/12/10 10:44:16;;;;;;;;;6.00;6.00;;;;;0.90;93.59;97328.13;4906497;28;102264;-72
2022/12/10 10:46:46;;;;;;;;;6.50;6.50;;;;;1.05;93.86;97324.75;4912040;28;104275;-72
2022/12/10 10:49:41;;;;;;;;;5.00;2.75;;;;;1.13;93.68;97316.72;4915030;28;102174;-73
2022/12/10 10:52:16;;;;;;;;;6.50;2.75;;;;;1.13;92.63;97327.38;4913813;28;102275;-73
2022/12/10 10:54:45;;;;;;;;;2.75;1.00;;;;;1.16;91.82;97337.69;4892471;28;102102;-72
2022/12/10 10:57:24;;;;;;;;;2.00;2.00;;;;;1.12;91.88;97341.69;4904963;28;104005;-72
2022/12/10 10:59:56;;;;;;;;;2.75;2.50;;;;;1.00;92.07;97346.56;4888809;28;102460;-72
2022/12/10 11:02:31;;;;;;;;;5.50;1.25;;;;;1.00;92.40;97345.72;4915559;28;102337;-72
2022/12/10 11:05:06;;;;;;;;;8.25;5.00;;;;;1.04;92.67;97347.03;4914005;28;102057;-72
2022/12/10 11:07:37;;;;;;;;;6.50;5.00;;;;;0.99;92.56;97344.88;4916586;28;107903;-72
2022/12/10 11:10:20;;;;;;;;;5.00;5.00;;;;;1.02;93.09;97347.22;4913147;28;102061;-72
2022/12/10 11:12:56;;;;;;;;;6.25;5.75;;;;;1.02;92.19;97339.25;4876798;28;102177;-72
2022/12/10 11:15:24;;;;;;;;;4.25;3.25;;;;;1.08;92.61;97314.56;4894134;28;102150;-72
2022/12/10 11:17:54;;;;;;;;;0.25;0.25;;;;;0.99;92.66;97322.78;4888602;28;103987;-72
2022/12/10 11:20:29;;;;;;;;;6.00;3.50;;;;;1.03;92.71;97337.41;4885808;28;102038;-72
2022/12/10 11:23:02;;;;;;;;;8.75;6.50;;;;;0.92;93.29;97346.59;4913932;28;102347;-72
2022/12/10 11:25:53;;;;;;;;;7.75;5.25;;;;;1.05;93.71;97346.03;4916648;28;102388;-72
2022/12/10 11:28:43;;;;;;;;;4.00;2.00;;;;;1.10;93.17;97346.34;4911555;28;108721;-72
2022/12/10 11:31:32;;;;;;;;;6.50;5.00;;;;;0.98;93.29;97342.41;4904666;28;102137;-72
2022/12/10 11:34:13;;;;;;;;;8.25;6.25;;;;;0.89;93.63;97337.13;4911771;28;102166;-72
2022/12/10 11:36:47;;;;;;;;;5.25;4.75;;;;;0.85;93.51;97334.97;4916659;28;101911;-72
2022/12/10 11:39:21;;;;;;;;;6.25;5.50;;;;;0.93;93.60;97339.44;4905787;28;103966;-71
2022/12/10 11:42:24;;;;;;;;;7.50;7.00;;;;;0.76;93.96;97336.00;4915021;28;102482;-71
2022/12/10 11:44:57;;;;;;;;;9.00;8.00;;;;;0.74;93.87;97338.84;4897882;28;102140;-72
2022/12/10 11:47:49;;;;;;;;;9.00;6.50;;;;;0.73;93.95;97337.16;4905184;28;102027;-71
2022/12/10 11:50:41;;;;;;;;;9.50;7.00;;;;;0.77;93.86;97343.81;4914824;28;107229;-71
2022/12/10 11:53:32;;;;;;;;;5.00;1.50;;;;;0.94;94.30;97349.91;4914076;28;102316;-72
2022/12/10 11:56:17;;;;;;;;;1.00;1.00;;;;;0.95;94.15;97351.56;4914432;28;102083;-71
2022/12/10 11:59:05;;;;;;;;;2.00;0.75;;;;;1.04;94.07;97352.34;4913991;28;102241;-71
2022/12/10 12:02:18;;;;;;;;;1.25;1.00;;;;;1.00;93.21;97348.38;4909828;28;108741;-71
2022/12/10 12:05:26;;;;;;;;;5.25;5.00;;;;;0.96;93.31;97342.59;4874348;28;102458;-72
2022/12/10 12:08:19;;;;;;;;;5.00;2.50;;;;;0.99;93.47;97346.75;4914007;28;102418;-72